sensor_id;sensor_type;location;lat;lon;timestamp;temperature;humidity
4635;DHT22;2330;48.158;11.816;2022-12-20T00:01:25;-0.20;98.50
4635;DHT22;2330;48.158;11.816;2022-12-20T00:03:54;-0.30;98.50
4635;DHT22;2330;48.158;11.816;2022-12-20T00:06:22;-0.30;98.50
4635;DHT22;2330;48.158;11.816;2022-12-20T00:08:54;-0.30;98.50
4635;DHT22;2330;48.158;11.816;2022-12-20T00:11:21;-0.40;98.50
4635;DHT22;2330;48.158;11.816;2022-12-20T00:13:49;-0.40;98.50
4635;DHT22;2330;48.158;11.816;2022-12-20T00:16:21;-0.30;98.50
4635;DHT22;2330;48.158;11.816;2022-12-20T00:18:53;-0.20;98.50
4635;DHT22;2330;48.158;11.816;2022-12-20T00:21:21;-0.10;98.50
4635;DHT22;2330;48.158;11.816;2022-12-20T00:23:48;-0.10;98.50
4635;DHT22;2330;48.158;11.816;2022-12-20T00:26:18;0.00;98.50
4635;DHT22;2330;48.158;11.816;2022-12-20T00:28:46;0.00;98.50
4635;DHT22;2330;48.158;11.816;2022-12-20T00:31:14;-0.10;98.50
4635;DHT22;2330;48.158;11.816;2022-12-20T00:33:45;-0.10;98.50
4635;DHT22;2330;48.158;11.816;2022-12-20T00:36:13;-0.10;98.50
4635;DHT22;2330;48.158;11.816;2022-12-20T00:38:40;-0.20;98.50
4635;DHT22;2330;48.158;11.816;2022-12-20T00:41:09;-0.20;98.50
4635;DHT22;2330;48.158;11.816;2022-12-20T00:43:37;-0.20;98.50
4635;DHT22;2330;48.158;11.816;2022-12-20T00:46:05;-0.20;98.50
4635;DHT22;2330;48.158;11.816;2022-12-20T00:48:33;-0.20;98.50
4635;DHT22;2330;48.158;11.816;2022-12-20T00:51:11;-0.20;98.50
4635;DHT22;2330;48.158;11.816;2022-12-20T00:53:39;-0.20;98.50
4635;DHT22;2330;48.158;11.816;2022-12-20T00:56:06;-0.20;98.50
4635;DHT22;2330;48.158;11.816;2022-12-20T00:58:36;-0.30;98.50
4635;DHT22;2330;48.158;11.816;2022-12-20T01:01:04;-0.30;98.50
4635;DHT22;2330;48.158;11.816;2022-12-20T01:03:31;-0.40;98.50
4635;DHT22;2330;48.158;11.816;2022-12-20T01:06:00;-0.40;98.50
4635;DHT22;2330;48.158;11.816;2022-12-20T01:08:29;-0.40;98.50
4635;DHT22;2330;48.158;11.816;2022-12-20T01:11:02;-0.50;98.50
4635;DHT22;2330;48.158;11.816;2022-12-20T01:13:29;-0.50;98.50
4635;DHT22;2330;48.158;11.816;2022-12-20T01:16:13;-0.40;98.50
4635;DHT22;2330;48.158;11.816;2022-12-20T01:18:40;-0.40;98.50
4635;DHT22;2330;48.158;11.816;2022-12-20T01:21:09;-0.40;98.50
4635;DHT22;2330;48.158;11.816;2022-12-20T01:23:37;-0.40;98.50
4635;DHT22;2330;48.158;11.816;2022-12-20T01:26:06;-0.40;98.50
4635;DHT22;2330;48.158;11.816;2022-12-20T01:28:38;-0.40;98.50
4635;DHT22;2330;48.158;11.816;2022-12-20T01:31:06;-0.40;98.50
4635;DHT22;2330;48.158;11.816;2022-12-20T01:33:34;-0.40;98.50
4635;DHT22;2330;48.158;11.816;2022-12-20T01:36:04;-0.40;98.50
4635;DHT22;2330;48.158;11.816;2022-12-20T01:38:33;-0.40;98.50
4635;DHT22;2330;48.158;11.816;2022-12-20T01:41:00;-0.30;98.50
4635;DHT22;2330;48.158;11.816;2022-12-20T01:43:56;-0.30;98.50
4635;DHT22;2330;48.158;11.816;2022-12-20T01:46:29;-0.30;98.50
4635;DHT22;2330;48.158;11.816;2022-12-20T01:51:42;-0.10;98.50
4635;DHT22;2330;48.158;11.816;2022-12-20T01:54:14;-0.10;98.50
4635;DHT22;2330;48.158;11.816;2022-12-20T01:56:44;0.00;98.50
4635;DHT22;2330;48.158;11.816;2022-12-20T01:59:13;0.00;98.50
4635;DHT22;2330;48.158;11.816;2022-12-20T02:01:41;0.00;98.50
4635;DHT22;2330;48.158;11.816;2022-12-20T02:04:09;0.00;98.50
4635;DHT22;2330;48.158;11.816;2022-12-20T02:06:35;0.00;98.50
4635;DHT22;2330;48.158;11.816;2022-12-20T02:09:03;0.00;98.50
4635;DHT22;2330;48.158;11.816;2022-12-20T02:11:45;0.00;98.50
4635;DHT22;2330;48.158;11.816;2022-12-20T02:29:17;0.20;98.50
4635;DHT22;2330;48.158;11.816;2022-12-20T02:31:30;0.20;98.50
4635;DHT22;2330;48.158;11.816;2022-12-20T02:33:59;0.30;98.50
4635;DHT22;2330;48.158;11.816;2022-12-20T02:36:28;0.30;98.50
4635;DHT22;2330;48.158;11.816;2022-12-20T02:38:54;0.30;98.50
4635;DHT22;2330;48.158;11.816;2022-12-20T02:41:46;0.30;98.50
4635;DHT22;2330;48.158;11.816;2022-12-20T02:44:15;0.30;98.50
4635;DHT22;2330;48.158;11.816;2022-12-20T02:47:05;0.20;98.50
4635;DHT22;2330;48.158;11.816;2022-12-20T02:49:35;0.20;98.50
4635;DHT22;2330;48.158;11.816;2022-12-20T02:52:04;0.10;98.50
4635;DHT22;2330;48.158;11.816;2022-12-20T02:54:32;0.10;98.50
4635;DHT22;2330;48.158;11.816;2022-12-20T02:57:27;0.10;98.50
4635;DHT22;2330;48.158;11.816;2022-12-20T03:00:08;0.10;98.50
4635;DHT22;2330;48.158;11.816;2022-12-20T03:02:36;0.10;98.50
4635;DHT22;2330;48.158;11.816;2022-12-20T03:05:43;0.20;98.50
4635;DHT22;2330;48.158;11.816;2022-12-20T03:08:10;0.20;98.50
4635;DHT22;2330;48.158;11.816;2022-12-20T03:10:37;0.20;98.50
4635;DHT22;2330;48.158;11.816;2022-12-20T03:13:05;0.10;98.50
4635;DHT22;2330;48.158;11.816;2022-12-20T03:15:31;0.10;98.50
4635;DHT22;2330;48.158;11.816;2022-12-20T03:17:58;0.10;98.50
4635;DHT22;2330;48.158;11.816;2022-12-20T03:20:25;0.10;98.50
4635;DHT22;2330;48.158;11.816;2022-12-20T03:22:52;0.10;98.50
4635;DHT22;2330;48.158;11.816;2022-12-20T03:25:19;0.10;98.50
4635;DHT22;2330;48.158;11.816;2022-12-20T03:27:45;0.10;98.50
4635;DHT22;2330;48.158;11.816;2022-12-20T03:30:13;0.10;98.50
4635;DHT22;2330;48.158;11.816;2022-12-20T03:32:40;0.20;98.50
4635;DHT22;2330;48.158;11.816;2022-12-20T03:35:07;0.30;98.50
4635;DHT22;2330;48.158;11.816;2022-12-20T03:37:34;0.30;98.50
4635;DHT22;2330;48.158;11.816;2022-12-20T03:40:01;0.30;98.50
4635;DHT22;2330;48.158;11.816;2022-12-20T03:42:28;0.30;98.50
4635;DHT22;2330;48.158;11.816;2022-12-20T03:44:54;0.30;98.50
4635;DHT22;2330;48.158;11.816;2022-12-20T03:47:21;0.20;98.50
4635;DHT22;2330;48.158;11.816;2022-12-20T03:49:48;0.30;98.50
4635;DHT22;2330;48.158;11.816;2022-12-20T03:52:15;0.30;98.50
4635;DHT22;2330;48.158;11.816;2022-12-20T03:54:42;0.30;98.50
4635;DHT22;2330;48.158;11.816;2022-12-20T03:57:08;0.40;98.50
4635;DHT22;2330;48.158;11.816;2022-12-20T03:59:35;0.40;98.50
4635;DHT22;2330;48.158;11.816;2022-12-20T04:02:02;0.40;98.50
4635;DHT22;2330;48.158;11.816;2022-12-20T04:04:30;0.50;98.50
4635;DHT22;2330;48.158;11.816;2022-12-20T04:06:57;0.50;98.50
4635;DHT22;2330;48.158;11.816;2022-12-20T04:09:23;0.50;98.50
4635;DHT22;2330;48.158;11.816;2022-12-20T04:11:50;0.60;98.50
4635;DHT22;2330;48.158;11.816;2022-12-20T04:14:17;0.60;98.50
4635;DHT22;2330;48.158;11.816;2022-12-20T04:16:44;0.50;98.50
4635;DHT22;2330;48.158;11.816;2022-12-20T04:19:11;0.50;98.50
4635;DHT22;2330;48.158;11.816;2022-12-20T04:21:38;0.40;98.50
4635;DHT22;2330;48.158;11.816;2022-12-20T04:24:05;0.40;98.50
4635;DHT22;2330;48.158;11.816;2022-12-20T04:26:32;0.30;98.50
4635;DHT22;2330;48.158;11.816;2022-12-20T04:28:58;0.40;98.50
4635;DHT22;2330;48.158;11.816;2022-12-20T04:31:25;0.50;98.50
4635;DHT22;2330;48.158;11.816;2022-12-20T04:33:52;0.60;98.50
4635;DHT22;2330;48.158;11.816;2022-12-20T04:36:20;0.60;98.50
4635;DHT22;2330;48.158;11.816;2022-12-20T04:38:47;0.70;98.50
4635;DHT22;2330;48.158;11.816;2022-12-20T04:41:14;0.60;98.50
4635;DHT22;2330;48.158;11.816;2022-12-20T04:43:49;0.60;98.50
4635;DHT22;2330;48.158;11.816;2022-12-20T04:46:17;0.70;98.50
4635;DHT22;2330;48.158;11.816;2022-12-20T04:48:44;0.70;98.50
4635;DHT22;2330;48.158;11.816;2022-12-20T04:51:23;0.70;98.50
4635;DHT22;2330;48.158;11.816;2022-12-20T04:53:50;0.70;98.50
4635;DHT22;2330;48.158;11.816;2022-12-20T04:56:26;0.70;98.50
4635;DHT22;2330;48.158;11.816;2022-12-20T04:58:55;0.70;98.50
4635;DHT22;2330;48.158;11.816;2022-12-20T05:01:23;0.70;98.50
4635;DHT22;2330;48.158;11.816;2022-12-20T05:03:50;0.70;98.50
4635;DHT22;2330;48.158;11.816;2022-12-20T05:06:18;0.80;98.50
4635;DHT22;2330;48.158;11.816;2022-12-20T05:08:45;0.80;98.50
4635;DHT22;2330;48.158;11.816;2022-12-20T05:11:11;0.80;98.50
4635;DHT22;2330;48.158;11.816;2022-12-20T05:13:39;0.80;98.50
4635;DHT22;2330;48.158;11.816;2022-12-20T05:16:06;0.80;98.50
4635;DHT22;2330;48.158;11.816;2022-12-20T05:18:32;0.70;98.50
4635;DHT22;2330;48.158;11.816;2022-12-20T05:21:01;0.60;98.50
4635;DHT22;2330;48.158;11.816;2022-12-20T05:23:47;0.60;98.50
4635;DHT22;2330;48.158;11.816;2022-12-20T05:26:35;0.60;98.50
4635;DHT22;2330;48.158;11.816;2022-12-20T05:29:03;0.60;98.50
4635;DHT22;2330;48.158;11.816;2022-12-20T05:31:30;0.60;98.50
4635;DHT22;2330;48.158;11.816;2022-12-20T05:33:57;0.60;98.50
4635;DHT22;2330;48.158;11.816;2022-12-20T05:36:24;0.60;98.50
4635;DHT22;2330;48.158;11.816;2022-12-20T05:38:51;0.50;98.50
4635;DHT22;2330;48.158;11.816;2022-12-20T05:41:23;0.50;98.50
4635;DHT22;2330;48.158;11.816;2022-12-20T05:43:50;0.50;98.50
4635;DHT22;2330;48.158;11.816;2022-12-20T05:46:17;0.50;98.50
4635;DHT22;2330;48.158;11.816;2022-12-20T05:48:44;0.60;98.50
4635;DHT22;2330;48.158;11.816;2022-12-20T05:51:11;0.60;98.50
4635;DHT22;2330;48.158;11.816;2022-12-20T05:53:38;0.50;98.50
4635;DHT22;2330;48.158;11.816;2022-12-20T05:56:05;0.70;98.50
4635;DHT22;2330;48.158;11.816;2022-12-20T05:58:32;0.70;98.50
4635;DHT22;2330;48.158;11.816;2022-12-20T06:01:00;0.80;98.50
4635;DHT22;2330;48.158;11.816;2022-12-20T06:03:28;0.80;98.50
4635;DHT22;2330;48.158;11.816;2022-12-20T06:05:55;0.80;98.50
4635;DHT22;2330;48.158;11.816;2022-12-20T06:08:22;0.80;98.50
4635;DHT22;2330;48.158;11.816;2022-12-20T06:10:50;0.80;98.50
4635;DHT22;2330;48.158;11.816;2022-12-20T06:13:17;0.80;98.50
4635;DHT22;2330;48.158;11.816;2022-12-20T06:15:44;0.80;98.50
4635;DHT22;2330;48.158;11.816;2022-12-20T06:18:11;0.80;98.50
4635;DHT22;2330;48.158;11.816;2022-12-20T06:20:38;0.90;98.50
4635;DHT22;2330;48.158;11.816;2022-12-20T06:23:05;0.90;98.50
4635;DHT22;2330;48.158;11.816;2022-12-20T06:25:32;1.00;98.50
4635;DHT22;2330;48.158;11.816;2022-12-20T06:27:58;1.00;98.50
4635;DHT22;2330;48.158;11.816;2022-12-20T06:30:25;1.00;98.50
4635;DHT22;2330;48.158;11.816;2022-12-20T06:33:00;1.00;98.50
4635;DHT22;2330;48.158;11.816;2022-12-20T06:35:27;1.10;98.50
4635;DHT22;2330;48.158;11.816;2022-12-20T06:37:55;1.10;98.50
4635;DHT22;2330;48.158;11.816;2022-12-20T06:40:24;1.10;98.50
4635;DHT22;2330;48.158;11.816;2022-12-20T06:42:52;1.00;98.50
4635;DHT22;2330;48.158;11.816;2022-12-20T06:45:18;1.00;98.50
4635;DHT22;2330;48.158;11.816;2022-12-20T06:47:45;1.00;98.50
4635;DHT22;2330;48.158;11.816;2022-12-20T06:50:12;1.00;98.50
4635;DHT22;2330;48.158;11.816;2022-12-20T06:52:39;1.00;98.50
4635;DHT22;2330;48.158;11.816;2022-12-20T06:55:06;1.10;98.50
4635;DHT22;2330;48.158;11.816;2022-12-20T06:57:33;1.10;98.50
4635;DHT22;2330;48.158;11.816;2022-12-20T07:00:00;1.10;98.50
4635;DHT22;2330;48.158;11.816;2022-12-20T07:02:27;1.10;98.50
4635;DHT22;2330;48.158;11.816;2022-12-20T07:04:54;1.10;98.50
4635;DHT22;2330;48.158;11.816;2022-12-20T07:07:21;1.20;98.50
4635;DHT22;2330;48.158;11.816;2022-12-20T07:09:48;1.10;98.50
4635;DHT22;2330;48.158;11.816;2022-12-20T07:12:14;1.10;98.50
4635;DHT22;2330;48.158;11.816;2022-12-20T07:14:41;1.10;98.50
4635;DHT22;2330;48.158;11.816;2022-12-20T07:17:10;1.20;98.50
4635;DHT22;2330;48.158;11.816;2022-12-20T07:19:36;1.20;98.50
4635;DHT22;2330;48.158;11.816;2022-12-20T07:22:04;1.10;98.50
4635;DHT22;2330;48.158;11.816;2022-12-20T07:24:32;1.10;98.50
4635;DHT22;2330;48.158;11.816;2022-12-20T07:27:00;1.10;98.50
4635;DHT22;2330;48.158;11.816;2022-12-20T07:29:27;1.10;98.50
4635;DHT22;2330;48.158;11.816;2022-12-20T07:31:54;1.00;98.50
4635;DHT22;2330;48.158;11.816;2022-12-20T07:34:21;1.00;98.50
4635;DHT22;2330;48.158;11.816;2022-12-20T07:36:48;1.00;98.50
4635;DHT22;2330;48.158;11.816;2022-12-20T07:39:16;1.00;98.50
4635;DHT22;2330;48.158;11.816;2022-12-20T07:41:42;1.00;98.50
4635;DHT22;2330;48.158;11.816;2022-12-20T07:44:09;1.10;98.50
4635;DHT22;2330;48.158;11.816;2022-12-20T07:46:36;1.20;98.50
4635;DHT22;2330;48.158;11.816;2022-12-20T07:49:03;1.20;98.50
4635;DHT22;2330;48.158;11.816;2022-12-20T07:51:35;1.20;98.50
4635;DHT22;2330;48.158;11.816;2022-12-20T07:54:04;1.20;98.50
4635;DHT22;2330;48.158;11.816;2022-12-20T07:56:33;1.20;98.50
4635;DHT22;2330;48.158;11.816;2022-12-20T07:59:09;1.20;98.50
4635;DHT22;2330;48.158;11.816;2022-12-20T08:01:37;1.20;98.50
4635;DHT22;2330;48.158;11.816;2022-12-20T08:04:12;1.20;98.50
4635;DHT22;2330;48.158;11.816;2022-12-20T08:06:40;1.20;98.50
4635;DHT22;2330;48.158;11.816;2022-12-20T08:09:08;1.30;98.50
4635;DHT22;2330;48.158;11.816;2022-12-20T08:11:39;1.30;98.50
4635;DHT22;2330;48.158;11.816;2022-12-20T08:14:07;1.30;98.50
4635;DHT22;2330;48.158;11.816;2022-12-20T08:16:34;1.30;98.50
4635;DHT22;2330;48.158;11.816;2022-12-20T08:19:01;1.30;98.50
4635;DHT22;2330;48.158;11.816;2022-12-20T08:21:29;1.40;98.50
4635;DHT22;2330;48.158;11.816;2022-12-20T08:23:56;1.40;98.50
4635;DHT22;2330;48.158;11.816;2022-12-20T08:26:23;1.40;98.50
4635;DHT22;2330;48.158;11.816;2022-12-20T08:28:50;1.50;98.50
4635;DHT22;2330;48.158;11.816;2022-12-20T08:31:17;1.60;98.50
4635;DHT22;2330;48.158;11.816;2022-12-20T08:33:44;1.60;98.50
4635;DHT22;2330;48.158;11.816;2022-12-20T08:36:12;1.60;98.50
4635;DHT22;2330;48.158;11.816;2022-12-20T08:38:39;1.60;98.50
4635;DHT22;2330;48.158;11.816;2022-12-20T08:41:08;1.70;98.50
4635;DHT22;2330;48.158;11.816;2022-12-20T08:43:37;1.70;98.50
4635;DHT22;2330;48.158;11.816;2022-12-20T08:46:05;1.70;98.50
4635;DHT22;2330;48.158;11.816;2022-12-20T08:48:32;1.70;98.50
4635;DHT22;2330;48.158;11.816;2022-12-20T08:51:02;1.70;98.50
4635;DHT22;2330;48.158;11.816;2022-12-20T08:53:29;1.70;98.50
4635;DHT22;2330;48.158;11.816;2022-12-20T08:56:23;1.80;98.50
4635;DHT22;2330;48.158;11.816;2022-12-20T08:58:49;1.80;98.50
4635;DHT22;2330;48.158;11.816;2022-12-20T09:01:18;1.80;98.50
4635;DHT22;2330;48.158;11.816;2022-12-20T09:03:46;1.80;98.50
4635;DHT22;2330;48.158;11.816;2022-12-20T09:06:17;1.80;98.50
4635;DHT22;2330;48.158;11.816;2022-12-20T09:08:43;1.90;98.50
4635;DHT22;2330;48.158;11.816;2022-12-20T09:11:16;1.90;98.50
4635;DHT22;2330;48.158;11.816;2022-12-20T09:13:45;2.00;98.50
4635;DHT22;2330;48.158;11.816;2022-12-20T09:16:13;2.00;98.50
4635;DHT22;2330;48.158;11.816;2022-12-20T09:18:41;1.90;98.50
4635;DHT22;2330;48.158;11.816;2022-12-20T09:21:09;1.90;98.50
4635;DHT22;2330;48.158;11.816;2022-12-20T09:23:36;1.90;98.50
4635;DHT22;2330;48.158;11.816;2022-12-20T09:26:05;2.00;98.50
4635;DHT22;2330;48.158;11.816;2022-12-20T09:28:33;2.00;98.50
4635;DHT22;2330;48.158;11.816;2022-12-20T09:31:05;2.10;98.50
4635;DHT22;2330;48.158;11.816;2022-12-20T09:33:33;2.10;98.50
4635;DHT22;2330;48.158;11.816;2022-12-20T09:36:01;2.20;98.50
4635;DHT22;2330;48.158;11.816;2022-12-20T09:38:28;2.20;98.50
4635;DHT22;2330;48.158;11.816;2022-12-20T09:41:02;2.30;98.50
4635;DHT22;2330;48.158;11.816;2022-12-20T09:43:31;2.30;98.50
4635;DHT22;2330;48.158;11.816;2022-12-20T09:46:00;2.40;98.50
4635;DHT22;2330;48.158;11.816;2022-12-20T09:48:37;2.40;98.50
4635;DHT22;2330;48.158;11.816;2022-12-20T09:51:28;2.40;98.50
4635;DHT22;2330;48.158;11.816;2022-12-20T09:56:44;2.40;98.50
4635;DHT22;2330;48.158;11.816;2022-12-20T09:59:14;2.50;98.50
4635;DHT22;2330;48.158;11.816;2022-12-20T10:01:46;2.50;98.50
4635;DHT22;2330;48.158;11.816;2022-12-20T10:04:29;2.60;98.50
4635;DHT22;2330;48.158;11.816;2022-12-20T10:07:32;2.80;98.50
4635;DHT22;2330;48.158;11.816;2022-12-20T10:12:45;3.00;98.50
4635;DHT22;2330;48.158;11.816;2022-12-20T10:15:22;3.00;98.50
4635;DHT22;2330;48.158;11.816;2022-12-20T10:23:20;3.20;98.50
4635;DHT22;2330;48.158;11.816;2022-12-20T10:25:58;3.10;98.50
4635;DHT22;2330;48.158;11.816;2022-12-20T10:28:35;3.00;98.50
4635;DHT22;2330;48.158;11.816;2022-12-20T10:31:09;3.10;98.50
4635;DHT22;2330;48.158;11.816;2022-12-20T10:33:37;3.10;98.50
4635;DHT22;2330;48.158;11.816;2022-12-20T10:38:56;3.10;98.50
4635;DHT22;2330;48.158;11.816;2022-12-20T10:41:26;3.20;98.50
4635;DHT22;2330;48.158;11.816;2022-12-20T10:44:22;3.20;98.50
4635;DHT22;2330;48.158;11.816;2022-12-20T10:46:56;3.00;98.50
4635;DHT22;2330;48.158;11.816;2022-12-20T10:49:36;3.00;98.50
4635;DHT22;2330;48.158;11.816;2022-12-20T10:52:12;3.10;98.50
4635;DHT22;2330;48.158;11.816;2022-12-20T10:54:44;3.00;98.50
4635;DHT22;2330;48.158;11.816;2022-12-20T10:57:18;3.10;98.50
4635;DHT22;2330;48.158;11.816;2022-12-20T10:59:51;3.10;98.50
4635;DHT22;2330;48.158;11.816;2022-12-20T11:02:31;3.10;98.50
4635;DHT22;2330;48.158;11.816;2022-12-20T11:10:39;3.30;98.50
4635;DHT22;2330;48.158;11.816;2022-12-20T11:13:05;3.30;98.50
4635;DHT22;2330;48.158;11.816;2022-12-20T11:15:35;3.40;98.50
4635;DHT22;2330;48.158;11.816;2022-12-20T11:18:09;3.40;98.50
4635;DHT22;2330;48.158;11.816;2022-12-20T11:20:43;3.40;98.50
4635;DHT22;2330;48.158;11.816;2022-12-20T11:23:31;3.50;98.50
4635;DHT22;2330;48.158;11.816;2022-12-20T11:31:55;3.70;98.50
4635;DHT22;2330;48.158;11.816;2022-12-20T11:34:36;3.80;98.50
4635;DHT22;2330;48.158;11.816;2022-12-20T11:37:28;3.90;98.50
4635;DHT22;2330;48.158;11.816;2022-12-20T11:40:25;3.90;98.50
4635;DHT22;2330;48.158;11.816;2022-12-20T11:46:18;4.00;98.50
4635;DHT22;2330;48.158;11.816;2022-12-20T11:51:47;4.20;98.50
4635;DHT22;2330;48.158;11.816;2022-12-20T11:54:24;4.20;98.50
4635;DHT22;2330;48.158;11.816;2022-12-20T11:56:57;4.20;98.50
4635;DHT22;2330;48.158;11.816;2022-12-20T12:04:58;4.10;98.50
4635;DHT22;2330;48.158;11.816;2022-12-20T12:07:30;4.10;98.50
4635;DHT22;2330;48.158;11.816;2022-12-20T12:17:36;4.20;98.50
4635;DHT22;2330;48.158;11.816;2022-12-20T12:25:53;4.10;98.50
4635;DHT22;2330;48.158;11.816;2022-12-20T12:28:21;4.10;98.50
4635;DHT22;2330;48.158;11.816;2022-12-20T12:31:08;4.00;98.50
4635;DHT22;2330;48.158;11.816;2022-12-20T12:39:31;3.90;98.50
4635;DHT22;2330;48.158;11.816;2022-12-20T12:44:49;3.90;98.50
4635;DHT22;2330;48.158;11.816;2022-12-20T12:50:01;3.90;98.50
4635;DHT22;2330;48.158;11.816;2022-12-20T12:52:41;3.90;98.50
4635;DHT22;2330;48.158;11.816;2022-12-20T12:55:34;3.80;98.50
4635;DHT22;2330;48.158;11.816;2022-12-20T12:58:29;3.70;98.50
4635;DHT22;2330;48.158;11.816;2022-12-20T13:01:09;3.50;98.50
4635;DHT22;2330;48.158;11.816;2022-12-20T13:11:34;3.30;98.50
4635;DHT22;2330;48.158;11.816;2022-12-20T13:16:45;3.40;98.50
4635;DHT22;2330;48.158;11.816;2022-12-20T13:19:34;3.30;98.50
4635;DHT22;2330;48.158;11.816;2022-12-20T13:24:59;3.30;98.50
4635;DHT22;2330;48.158;11.816;2022-12-20T13:40:47;3.20;98.50
4635;DHT22;2330;48.158;11.816;2022-12-20T13:46:35;3.30;98.50
4635;DHT22;2330;48.158;11.816;2022-12-20T13:51:18;3.50;98.50
4635;DHT22;2330;48.158;11.816;2022-12-20T13:53:57;3.50;98.50
4635;DHT22;2330;48.158;11.816;2022-12-20T13:58:57;3.60;98.50
4635;DHT22;2330;48.158;11.816;2022-12-20T14:01:25;3.50;98.50
4635;DHT22;2330;48.158;11.816;2022-12-20T14:04:05;3.40;98.50
4635;DHT22;2330;48.158;11.816;2022-12-20T14:06:33;3.40;98.50
4635;DHT22;2330;48.158;11.816;2022-12-20T14:09:00;3.30;98.50
4635;DHT22;2330;48.158;11.816;2022-12-20T14:11:29;3.30;98.50
4635;DHT22;2330;48.158;11.816;2022-12-20T14:16:24;3.40;98.50
4635;DHT22;2330;48.158;11.816;2022-12-20T14:21:28;3.50;98.50
4635;DHT22;2330;48.158;11.816;2022-12-20T14:23:57;3.50;98.50
4635;DHT22;2330;48.158;11.816;2022-12-20T14:26:31;3.60;98.50
4635;DHT22;2330;48.158;11.816;2022-12-20T14:28:59;3.70;98.50
4635;DHT22;2330;48.158;11.816;2022-12-20T14:31:37;3.80;98.50
4635;DHT22;2330;48.158;11.816;2022-12-20T14:36:41;4.00;98.50
4635;DHT22;2330;48.158;11.816;2022-12-20T14:39:29;4.10;98.50
4635;DHT22;2330;48.158;11.816;2022-12-20T14:44:33;4.00;98.50
4635;DHT22;2330;48.158;11.816;2022-12-20T14:47:04;3.90;98.50
4635;DHT22;2330;48.158;11.816;2022-12-20T14:49:39;3.80;98.50
4635;DHT22;2330;48.158;11.816;2022-12-20T14:52:16;3.80;98.50
4635;DHT22;2330;48.158;11.816;2022-12-20T14:54:57;3.70;98.50
4635;DHT22;2330;48.158;11.816;2022-12-20T15:03:10;3.50;98.50
4635;DHT22;2330;48.158;11.816;2022-12-20T15:05:45;3.60;98.50
4635;DHT22;2330;48.158;11.816;2022-12-20T15:15:53;3.20;98.50
4635;DHT22;2330;48.158;11.816;2022-12-20T15:18:20;3.20;98.50
4635;DHT22;2330;48.158;11.816;2022-12-20T15:21:04;3.30;98.50
4635;DHT22;2330;48.158;11.816;2022-12-20T15:23:32;3.40;98.50
4635;DHT22;2330;48.158;11.816;2022-12-20T15:25:59;3.40;98.50
4635;DHT22;2330;48.158;11.816;2022-12-20T15:28:26;3.40;98.50
4635;DHT22;2330;48.158;11.816;2022-12-20T15:30:54;3.30;98.50
4635;DHT22;2330;48.158;11.816;2022-12-20T15:33:31;3.20;98.50
4635;DHT22;2330;48.158;11.816;2022-12-20T15:35:59;3.10;98.50
4635;DHT22;2330;48.158;11.816;2022-12-20T15:38:26;3.00;98.50
4635;DHT22;2330;48.158;11.816;2022-12-20T15:41:25;2.90;98.50
4635;DHT22;2330;48.158;11.816;2022-12-20T15:44:06;2.80;98.50
4635;DHT22;2330;48.158;11.816;2022-12-20T15:46:36;2.90;98.50
4635;DHT22;2330;48.158;11.816;2022-12-20T15:49:04;2.90;98.50
4635;DHT22;2330;48.158;11.816;2022-12-20T15:51:36;2.90;98.50
4635;DHT22;2330;48.158;11.816;2022-12-20T15:56:44;2.90;98.50
4635;DHT22;2330;48.158;11.816;2022-12-20T15:59:11;2.90;98.50
4635;DHT22;2330;48.158;11.816;2022-12-20T16:01:58;2.80;98.50
4635;DHT22;2330;48.158;11.816;2022-12-20T16:04:26;2.70;98.50
4635;DHT22;2330;48.158;11.816;2022-12-20T16:06:54;2.70;98.50
4635;DHT22;2330;48.158;11.816;2022-12-20T16:09:21;2.60;98.50
4635;DHT22;2330;48.158;11.816;2022-12-20T16:11:51;2.60;98.50
4635;DHT22;2330;48.158;11.816;2022-12-20T16:14:19;2.50;98.50
4635;DHT22;2330;48.158;11.816;2022-12-20T16:16:47;2.50;98.50
4635;DHT22;2330;48.158;11.816;2022-12-20T16:19:16;2.40;98.50
4635;DHT22;2330;48.158;11.816;2022-12-20T16:24:14;2.30;98.50
4635;DHT22;2330;48.158;11.816;2022-12-20T16:26:41;2.40;98.50
4635;DHT22;2330;48.158;11.816;2022-12-20T16:29:08;2.50;98.50
4635;DHT22;2330;48.158;11.816;2022-12-20T16:31:38;2.60;98.50
4635;DHT22;2330;48.158;11.816;2022-12-20T16:34:14;2.60;98.50
4635;DHT22;2330;48.158;11.816;2022-12-20T16:36:41;2.80;98.50
4635;DHT22;2330;48.158;11.816;2022-12-20T16:39:09;2.90;98.50
4635;DHT22;2330;48.158;11.816;2022-12-20T16:41:38;2.90;98.50
4635;DHT22;2330;48.158;11.816;2022-12-20T16:44:12;2.90;98.50
4635;DHT22;2330;48.158;11.816;2022-12-20T16:46:40;2.90;98.50
4635;DHT22;2330;48.158;11.816;2022-12-20T16:49:09;2.90;98.50
4635;DHT22;2330;48.158;11.816;2022-12-20T16:51:47;2.80;98.50
4635;DHT22;2330;48.158;11.816;2022-12-20T16:54:19;2.70;98.50
4635;DHT22;2330;48.158;11.816;2022-12-20T16:56:50;2.60;98.50
4635;DHT22;2330;48.158;11.816;2022-12-20T16:59:21;2.60;98.50
4635;DHT22;2330;48.158;11.816;2022-12-20T17:01:52;2.50;98.50
4635;DHT22;2330;48.158;11.816;2022-12-20T17:04:21;2.40;98.50
4635;DHT22;2330;48.158;11.816;2022-12-20T17:06:48;2.30;98.50
4635;DHT22;2330;48.158;11.816;2022-12-20T17:09:16;2.20;98.50
4635;DHT22;2330;48.158;11.816;2022-12-20T17:12:01;2.10;98.50
4635;DHT22;2330;48.158;11.816;2022-12-20T17:14:29;2.10;98.50
4635;DHT22;2330;48.158;11.816;2022-12-20T17:16:56;2.00;98.50
4635;DHT22;2330;48.158;11.816;2022-12-20T17:19:23;2.00;98.50
4635;DHT22;2330;48.158;11.816;2022-12-20T17:21:50;2.00;98.50
4635;DHT22;2330;48.158;11.816;2022-12-20T17:24:34;2.00;98.50
4635;DHT22;2330;48.158;11.816;2022-12-20T17:27:01;1.90;98.50
4635;DHT22;2330;48.158;11.816;2022-12-20T17:29:28;1.90;98.50
4635;DHT22;2330;48.158;11.816;2022-12-20T17:31:54;1.90;98.50
4635;DHT22;2330;48.158;11.816;2022-12-20T17:34:27;1.90;98.50
4635;DHT22;2330;48.158;11.816;2022-12-20T17:36:55;1.80;98.50
4635;DHT22;2330;48.158;11.816;2022-12-20T17:39:24;1.80;98.50
4635;DHT22;2330;48.158;11.816;2022-12-20T17:41:51;1.80;98.50
4635;DHT22;2330;48.158;11.816;2022-12-20T17:44:25;1.80;98.50
4635;DHT22;2330;48.158;11.816;2022-12-20T17:46:54;1.80;98.50
4635;DHT22;2330;48.158;11.816;2022-12-20T17:49:21;1.80;98.50
4635;DHT22;2330;48.158;11.816;2022-12-20T17:51:49;1.80;98.50
4635;DHT22;2330;48.158;11.816;2022-12-20T17:54:20;1.80;98.50
4635;DHT22;2330;48.158;11.816;2022-12-20T17:56:48;1.70;98.50
4635;DHT22;2330;48.158;11.816;2022-12-20T17:59:19;1.70;98.50
4635;DHT22;2330;48.158;11.816;2022-12-20T18:01:46;1.70;98.50
4635;DHT22;2330;48.158;11.816;2022-12-20T18:04:14;1.70;98.50
4635;DHT22;2330;48.158;11.816;2022-12-20T18:06:44;1.60;98.50
4635;DHT22;2330;48.158;11.816;2022-12-20T18:09:16;1.60;98.50
4635;DHT22;2330;48.158;11.816;2022-12-20T18:11:44;1.50;98.50
4635;DHT22;2330;48.158;11.816;2022-12-20T18:14:11;1.50;98.50
4635;DHT22;2330;48.158;11.816;2022-12-20T18:16:39;1.50;98.50
4635;DHT22;2330;48.158;11.816;2022-12-20T18:19:07;1.50;98.50
4635;DHT22;2330;48.158;11.816;2022-12-20T18:21:34;1.40;98.50
4635;DHT22;2330;48.158;11.816;2022-12-20T18:24:01;1.50;98.50
4635;DHT22;2330;48.158;11.816;2022-12-20T18:26:29;1.50;98.50
4635;DHT22;2330;48.158;11.816;2022-12-20T18:28:58;1.50;98.50
4635;DHT22;2330;48.158;11.816;2022-12-20T18:31:27;1.50;98.50
4635;DHT22;2330;48.158;11.816;2022-12-20T18:33:55;1.50;98.50
4635;DHT22;2330;48.158;11.816;2022-12-20T18:36:27;1.50;98.50
4635;DHT22;2330;48.158;11.816;2022-12-20T18:38:56;1.50;98.50
4635;DHT22;2330;48.158;11.816;2022-12-20T18:41:25;1.50;98.50
4635;DHT22;2330;48.158;11.816;2022-12-20T18:43:57;1.50;98.50